createdAt,value
2023-05-05T00:02:20.458Z,95752.39
2023-05-05T00:04:48.899Z,95753.29
2023-05-05T00:07:16.826Z,95752.30
2023-05-05T00:09:44.784Z,95752.57
2023-05-05T00:12:12.713Z,95751.63
2023-05-05T00:14:41.477Z,95748.73
2023-05-05T00:17:09.608Z,95747.55
2023-05-05T00:19:37.800Z,95744.61
2023-05-05T00:22:06.263Z,95741.39
2023-05-05T00:24:34.244Z,95740.23
2023-05-05T00:27:02.324Z,95740.20
2023-05-05T00:29:30.581Z,95746.48
2023-05-05T00:31:58.561Z,95748.33
2023-05-05T00:34:26.969Z,95746.17
2023-05-05T00:36:55.125Z,95747.30
2023-05-05T00:39:23.420Z,95747.80
2023-05-05T00:41:51.590Z,95747.61
2023-05-05T00:44:34.880Z,95753.02
2023-05-05T00:47:03.624Z,95751.16
2023-05-05T00:49:32.022Z,95753.17
2023-05-05T00:52:00.007Z,95750.13
2023-05-05T00:54:28.283Z,95754.45
2023-05-05T00:56:56.354Z,95754.92
2023-05-05T00:59:24.317Z,95757.35
2023-05-05T01:01:52.516Z,95757.55
2023-05-05T01:04:20.943Z,95758.98
2023-05-05T01:07:12.131Z,95757.05
2023-05-05T01:10:11.093Z,95757.20
2023-05-05T01:12:49.481Z,95754.80
2023-05-05T01:15:23.470Z,95752.02
2023-05-05T01:17:58.911Z,95750.69
2023-05-05T01:20:26.864Z,95751.51
2023-05-05T01:23:00.608Z,95750.92
2023-05-05T01:25:48.253Z,95751.34
2023-05-05T01:28:40.118Z,95749.05
2023-05-05T01:31:28.159Z,95751.55
2023-05-05T01:33:59.952Z,95757.58
2023-05-05T01:36:31.670Z,95748.27
2023-05-05T01:39:00.640Z,95748.48
2023-05-05T01:41:30.977Z,95747.59
2023-05-05T01:44:03.467Z,95745.48
2023-05-05T01:46:32.481Z,95742.52
2023-05-05T01:49:00.609Z,95743.29
2023-05-05T01:51:29.625Z,95742.77
2023-05-05T01:53:59.352Z,95742.13
2023-05-05T01:56:28.265Z,95743.94
2023-05-05T01:58:57.131Z,95744.02
2023-05-05T02:01:26.237Z,95744.71
2023-05-05T02:03:56.938Z,95743.59
2023-05-05T02:06:27.097Z,95743.69
2023-05-05T02:08:58.551Z,95744.16
2023-05-05T02:11:27.960Z,95744.98
2023-05-05T02:13:57.955Z,95740.93
2023-05-05T02:16:26.404Z,95743.16
2023-05-05T02:18:54.564Z,95743.16
2023-05-05T02:21:22.966Z,95742.17
2023-05-05T02:23:52.131Z,95742.92
2023-05-05T02:26:21.923Z,95744.80
2023-05-05T02:29:04.176Z,95745.98
2023-05-05T02:31:34.615Z,95744.48
2023-05-05T02:34:05.153Z,95746.91
2023-05-05T02:36:38.091Z,95749.80
2023-05-05T02:39:12.876Z,95746.95
2023-05-05T02:41:43.068Z,95748.11
2023-05-05T02:44:17.558Z,95743.59
2023-05-05T02:46:46.045Z,95749.05
2023-05-05T02:49:15.227Z,95745.45
2023-05-05T02:51:43.708Z,95746.18
2023-05-05T02:54:18.486Z,95751.45
2023-05-05T02:56:49.041Z,95752.14
2023-05-05T02:59:36.745Z,95756.80
2023-05-05T03:02:08.272Z,95756.41
2023-05-05T03:04:41.923Z,95757.64
2023-05-05T03:07:14.405Z,95762.39
2023-05-05T03:09:46.087Z,95759.80
2023-05-05T03:12:18.445Z,95760.41
2023-05-05T03:14:59.157Z,95759.90
2023-05-05T03:17:31.108Z,95757.67
2023-05-05T03:20:02.270Z,95759.32
2023-05-05T03:22:37.264Z,95765.15
2023-05-05T03:25:06.474Z,95770.41
2023-05-05T03:27:34.544Z,95765.80
2023-05-05T03:30:02.705Z,95765.69
2023-05-05T03:32:32.584Z,95765.75
2023-05-05T03:35:00.598Z,95776.27
2023-05-05T03:37:31.704Z,95773.25
2023-05-05T03:40:00.170Z,95770.58
2023-05-05T03:42:28.472Z,95774.36
2023-05-05T03:44:57.280Z,95776.02
2023-05-05T03:47:25.729Z,95775.60
2023-05-05T03:49:54.177Z,95773.61
2023-05-05T03:52:22.072Z,95777.77
2023-05-05T03:54:50.356Z,95780.34
2023-05-05T03:57:19.250Z,95779.35
2023-05-05T03:59:47.314Z,95782.16
2023-05-05T04:02:18.636Z,95786.23
2023-05-05T04:04:47.416Z,95787.34
2023-05-05T04:07:15.867Z,95787.48
2023-05-05T04:09:44.941Z,95785.66
2023-05-05T04:12:13.376Z,95788.11
2023-05-05T04:14:41.754Z,95784.14
2023-05-05T04:17:10.411Z,95785.38
2023-05-05T04:19:39.222Z,95779.99
2023-05-05T04:22:08.583Z,95784.23
2023-05-05T04:24:37.416Z,95784.75
2023-05-05T04:27:05.920Z,95783.02
2023-05-05T04:29:34.241Z,95784.75
2023-05-05T04:32:02.555Z,95789.33
2023-05-05T04:34:30.892Z,95789.58
2023-05-05T04:36:59.009Z,95787.34
2023-05-05T04:39:27.273Z,95787.27
2023-05-05T04:41:55.457Z,95782.53
2023-05-05T04:44:23.557Z,95778.81
2023-05-05T04:46:51.946Z,95776.05
2023-05-05T04:49:20.430Z,95770.92
2023-05-05T04:51:48.778Z,95777.98
2023-05-05T04:54:16.968Z,95778.85
2023-05-05T04:56:45.045Z,95778.70
2023-05-05T04:59:13.132Z,95784.98
2023-05-05T05:01:41.310Z,95785.86
2023-05-05T05:04:14.012Z,95785.20
2023-05-05T05:06:41.956Z,95783.61
2023-05-05T05:09:09.942Z,95784.13
2023-05-05T05:11:38.007Z,95783.35
2023-05-05T05:14:05.888Z,95782.14
2023-05-05T05:16:33.944Z,95780.86
2023-05-05T05:19:02.358Z,95777.31
2023-05-05T05:21:31.832Z,95774.16
2023-05-05T05:24:00.477Z,95774.26
2023-05-05T05:26:28.425Z,95769.60
2023-05-05T05:28:56.702Z,95768.86
2023-05-05T05:31:25.214Z,95770.80
2023-05-05T05:33:53.725Z,95768.66
2023-05-05T05:36:21.796Z,95767.18
2023-05-05T05:38:50.154Z,95764.96
2023-05-05T05:41:18.220Z,95765.45
2023-05-05T05:43:46.344Z,95767.51
2023-05-05T05:46:14.905Z,95766.96
2023-05-05T05:48:44.245Z,95770.06
2023-05-05T05:51:12.217Z,95771.42
2023-05-05T05:53:40.223Z,95771.11
2023-05-05T05:56:09.194Z,95771.86
2023-05-05T05:58:37.495Z,95770.96
2023-05-05T06:01:05.632Z,95772.25
2023-05-05T06:03:34.214Z,95772.08
2023-05-05T06:06:02.343Z,95775.55
2023-05-05T06:08:30.639Z,95774.38
2023-05-05T06:11:00.659Z,95773.47
2023-05-05T06:13:28.810Z,95771.90
2023-05-05T06:15:57.293Z,95775.39
2023-05-05T06:18:25.311Z,95777.81
2023-05-05T06:20:53.378Z,95777.30
2023-05-05T06:23:22.641Z,95771.33
2023-05-05T06:25:55.737Z,95774.49
2023-05-05T06:28:23.833Z,95775.94
2023-05-05T06:30:51.987Z,95778.13
2023-05-05T06:33:20.118Z,95776.89
2023-05-05T06:35:51.658Z,95781.00
2023-05-05T06:38:20.042Z,95775.67
2023-05-05T06:40:49.768Z,95778.88
2023-05-05T06:43:18.077Z,95777.84
2023-05-05T06:45:49.474Z,95776.47
2023-05-05T06:48:18.553Z,95774.83
2023-05-05T06:50:46.905Z,95775.19
2023-05-05T06:53:15.065Z,95776.21
2023-05-05T06:55:44.929Z,95775.52
2023-05-05T06:58:13.309Z,95779.09
2023-05-05T07:00:41.458Z,95777.00
2023-05-05T07:03:09.554Z,95776.98
2023-05-05T07:05:37.664Z,95777.27
2023-05-05T07:08:06.752Z,95777.68
2023-05-05T07:10:35.127Z,95778.23
2023-05-05T07:13:03.194Z,95778.67
2023-05-05T07:15:31.335Z,95776.61
2023-05-05T07:17:59.539Z,95776.61
2023-05-05T07:20:27.709Z,95773.99
2023-05-05T07:22:56.113Z,95771.02
2023-05-05T07:25:24.104Z,95768.12
2023-05-05T07:27:52.381Z,95766.27
2023-05-05T07:30:21.421Z,95767.87
2023-05-05T07:32:49.698Z,95770.87
2023-05-05T07:35:17.826Z,95768.61
2023-05-05T07:37:48.834Z,95763.46
2023-05-05T07:40:16.982Z,95765.70
2023-05-05T07:42:45.058Z,95766.63
2023-05-05T07:45:13.099Z,95762.92
2023-05-05T07:47:41.251Z,95766.73
2023-05-05T07:50:09.871Z,95762.91
2023-05-05T07:52:48.277Z,95760.38
2023-05-05T07:55:19.660Z,95765.33
2023-05-05T07:57:48.015Z,95766.45
2023-05-05T08:00:16.583Z,95764.41
2023-05-05T08:02:44.847Z,95762.21
2023-05-05T08:05:13.239Z,95766.11
2023-05-05T08:07:41.691Z,95763.37
2023-05-05T08:10:10.827Z,95768.09
2023-05-05T08:12:39.193Z,95765.61
2023-05-05T08:15:07.766Z,95767.59
2023-05-05T08:17:49.507Z,95766.38
2023-05-05T08:20:18.726Z,95763.79
2023-05-05T08:22:46.918Z,95760.81
2023-05-05T08:25:14.998Z,95761.77
2023-05-05T08:27:43.251Z,95762.59
2023-05-05T08:30:12.092Z,95755.95
2023-05-05T08:32:40.222Z,95762.21
2023-05-05T08:35:08.570Z,95757.01
2023-05-05T08:37:37.054Z,95760.00
2023-05-05T08:40:05.973Z,95761.90
2023-05-05T08:42:38.460Z,95764.23
2023-05-05T08:45:08.668Z,95765.72
2023-05-05T08:47:37.779Z,95762.97
2023-05-05T08:50:06.238Z,95767.96
2023-05-05T08:52:44.912Z,95765.91
2023-05-05T08:55:14.752Z,95766.42
2023-05-05T08:57:51.802Z,95762.86
2023-05-05T09:00:20.581Z,95762.46
2023-05-05T09:02:49.354Z,95761.20
2023-05-05T09:05:18.059Z,95764.22
2023-05-05T09:07:47.428Z,95754.64
2023-05-05T09:10:16.002Z,95755.71
2023-05-05T09:12:44.202Z,95755.34
2023-05-05T09:15:14.183Z,95755.89
2023-05-05T09:17:43.368Z,95755.31
2023-05-05T09:20:12.784Z,95758.34
2023-05-05T09:22:42.083Z,95752.02
2023-05-05T09:25:12.201Z,95752.86
2023-05-05T09:27:41.489Z,95747.73
2023-05-05T09:30:11.321Z,95747.53
2023-05-05T09:32:46.072Z,95742.83
2023-05-05T09:35:14.577Z,95737.88
2023-05-05T09:37:42.802Z,95739.07
2023-05-05T09:40:11.369Z,95739.61
2023-05-05T09:42:39.987Z,95739.27
2023-05-05T09:45:08.168Z,95735.15
2023-05-05T09:47:37.237Z,95731.47
2023-05-05T09:50:06.810Z,95730.11
2023-05-05T09:52:35.467Z,95725.89
2023-05-05T09:55:03.714Z,95727.02
2023-05-05T09:57:34.981Z,95725.34
2023-05-05T10:00:04.481Z,95724.65
2023-05-05T10:02:34.790Z,95725.77
2023-05-05T10:05:16.625Z,95721.90
2023-05-05T10:07:46.107Z,95717.63
2023-05-05T10:10:15.214Z,95724.60
2023-05-05T10:12:43.421Z,95724.05
2023-05-05T10:15:12.173Z,95721.16
2023-05-05T10:18:02.346Z,95723.04
2023-05-05T10:20:36.507Z,95720.96
2023-05-05T10:23:07.168Z,95717.36
2023-05-05T10:25:39.215Z,95713.89
2023-05-05T10:28:09.821Z,95709.93
2023-05-05T10:30:43.144Z,95709.81
2023-05-05T10:35:53.342Z,95711.38
2023-05-05T10:38:24.829Z,95708.55
2023-05-05T10:40:55.309Z,95706.38
2023-05-05T10:43:23.508Z,95703.45
2023-05-05T10:45:52.152Z,95703.98
2023-05-05T10:48:32.434Z,95701.64
2023-05-05T10:51:27.321Z,95697.82
2023-05-05T10:54:18.520Z,95695.16
2023-05-05T10:56:47.173Z,95690.29
2023-05-05T10:59:33.891Z,95687.16
2023-05-05T11:02:01.851Z,95688.78
2023-05-05T11:04:31.016Z,95688.80
2023-05-05T11:07:11.042Z,95687.41
2023-05-05T11:09:55.210Z,95685.80
2023-05-05T11:12:23.135Z,95688.44
2023-05-05T11:15:09.896Z,95687.72
2023-05-05T11:17:45.465Z,95685.40
2023-05-05T11:20:13.645Z,95683.40
2023-05-05T11:23:00.926Z,95682.55
2023-05-05T11:25:35.421Z,95677.09
2023-05-05T11:28:04.983Z,95670.58
2023-05-05T11:30:32.934Z,95665.67
2023-05-05T11:33:19.778Z,95660.33
2023-05-05T11:35:54.594Z,95656.71
2023-05-05T11:38:26.273Z,95652.44
2023-05-05T11:40:59.627Z,95654.64
2023-05-05T11:43:27.967Z,95652.80
2023-05-05T11:46:15.355Z,95651.93
2023-05-05T11:48:47.394Z,95650.67
2023-05-05T11:51:16.484Z,95656.05
2023-05-05T11:53:45.600Z,95650.65
2023-05-05T11:56:19.222Z,95647.23
2023-05-05T11:59:05.460Z,95648.05
2023-05-05T12:01:33.465Z,95645.46
2023-05-05T12:04:01.908Z,95641.11
2023-05-05T12:06:32.476Z,95636.88
2023-05-05T12:09:01.175Z,95634.45
2023-05-05T12:11:29.260Z,95628.55
2023-05-05T12:14:07.191Z,95626.55
2023-05-05T12:16:35.324Z,95628.90
2023-05-05T12:19:05.803Z,95627.51
2023-05-05T12:21:34.378Z,95623.46
2023-05-05T12:24:02.963Z,95623.30
2023-05-05T12:26:31.781Z,95618.33
2023-05-05T12:29:00.655Z,95623.31
2023-05-05T12:31:38.576Z,95620.25
2023-05-05T12:34:07.941Z,95620.61
2023-05-05T12:36:36.359Z,95619.51
2023-05-05T12:39:05.429Z,95616.14
2023-05-05T12:41:34.121Z,95617.42
2023-05-05T12:44:03.246Z,95619.39
2023-05-05T12:46:32.037Z,95614.17
2023-05-05T12:49:01.631Z,95614.45
2023-05-05T12:51:29.830Z,95613.27
2023-05-05T12:54:05.062Z,95608.41
2023-05-05T12:56:33.289Z,95602.27
2023-05-05T12:59:02.230Z,95595.86
2023-05-05T13:01:30.616Z,95597.45
2023-05-05T13:04:12.105Z,95592.20
2023-05-05T13:06:44.189Z,95596.77
2023-05-05T13:09:31.010Z,95590.55
2023-05-05T13:11:59.398Z,95590.24
2023-05-05T13:14:27.388Z,95586.59
2023-05-05T13:16:55.996Z,95589.61
2023-05-05T13:19:27.757Z,95583.16
2023-05-05T13:21:56.649Z,95579.75
2023-05-05T13:24:37.852Z,95581.35
2023-05-05T13:27:07.369Z,95575.71
2023-05-05T13:29:36.248Z,95570.32
2023-05-05T13:32:06.143Z,95565.88
2023-05-05T13:34:34.380Z,95559.96
2023-05-05T13:37:02.386Z,95559.98
2023-05-05T13:39:30.365Z,95559.38
2023-05-05T13:41:58.357Z,95561.52
2023-05-05T13:44:26.468Z,95561.09
2023-05-05T13:46:54.650Z,95561.09
2023-05-05T13:49:22.828Z,95557.60
2023-05-05T13:51:50.866Z,95558.60
2023-05-05T13:54:18.887Z,95558.01
2023-05-05T13:56:46.999Z,95553.40
2023-05-05T13:59:15.226Z,95552.27
2023-05-05T14:01:43.303Z,95548.20
2023-05-05T14:04:11.337Z,95548.66
2023-05-05T14:06:39.550Z,95546.91
2023-05-05T14:09:08.215Z,95547.80
2023-05-05T14:11:36.362Z,95547.06
2023-05-05T14:14:04.379Z,95542.89
2023-05-05T14:16:32.644Z,95544.57
2023-05-05T14:19:00.825Z,95543.83
2023-05-05T14:21:28.972Z,95541.61
2023-05-05T14:23:57.088Z,95536.55
2023-05-05T14:26:25.802Z,95539.21
2023-05-05T14:28:54.018Z,95535.43
2023-05-05T14:31:22.160Z,95534.76
2023-05-05T14:33:50.922Z,95531.23
2023-05-05T14:36:18.872Z,95531.62
2023-05-05T14:38:46.932Z,95530.39
2023-05-05T14:41:14.911Z,95526.35
2023-05-05T14:43:42.874Z,95530.29
2023-05-05T14:46:10.898Z,95530.55
2023-05-05T14:48:38.898Z,95524.90
2023-05-05T14:51:06.815Z,95521.70
2023-05-05T14:53:34.879Z,95521.55
2023-05-05T14:56:03.281Z,95521.71
2023-05-05T14:58:31.386Z,95524.99
2023-05-05T15:01:00.692Z,95523.46
2023-05-05T15:03:28.967Z,95526.55
2023-05-05T15:05:57.558Z,95528.83
2023-05-05T15:08:25.609Z,95528.23
2023-05-05T15:10:53.579Z,95526.37
2023-05-05T15:13:21.660Z,95526.44
2023-05-05T15:15:50.141Z,95522.84
2023-05-05T15:18:18.158Z,95523.14
2023-05-05T15:20:46.568Z,95521.52
2023-05-05T15:23:14.650Z,95524.36
2023-05-05T15:25:42.688Z,95519.98
2023-05-05T15:28:10.738Z,95522.98
2023-05-05T15:30:38.660Z,95522.37
2023-05-05T15:33:06.684Z,95521.80
2023-05-05T15:35:34.870Z,95517.86
2023-05-05T15:38:03.428Z,95516.85
2023-05-05T15:40:31.555Z,95520.21
2023-05-05T15:42:59.524Z,95521.58
2023-05-05T15:45:27.680Z,95518.30
2023-05-05T15:47:56.244Z,95516.95
2023-05-05T15:50:24.509Z,95521.60
2023-05-05T15:52:52.514Z,95526.23
2023-05-05T15:55:20.582Z,95522.13
2023-05-05T15:57:48.563Z,95523.09
2023-05-05T16:00:16.783Z,95523.44
2023-05-05T16:02:45.184Z,95523.96
2023-05-05T16:05:13.279Z,95520.30
2023-05-05T16:07:41.226Z,95524.70
2023-05-05T16:10:10.106Z,95524.65
2023-05-05T16:12:38.440Z,95524.13
2023-05-05T16:15:07.095Z,95525.77
2023-05-05T16:17:35.253Z,95523.22
2023-05-05T16:20:03.983Z,95524.76
2023-05-05T16:22:31.992Z,95525.45
2023-05-05T16:24:59.995Z,95521.65
2023-05-05T16:27:27.878Z,95526.41
2023-05-05T16:29:57.703Z,95524.33
2023-05-05T16:32:27.108Z,95523.34
2023-05-05T16:34:55.313Z,95524.20
2023-05-05T16:37:23.360Z,95522.88
2023-05-05T16:39:51.465Z,95525.59
2023-05-05T16:42:20.257Z,95527.92
2023-05-05T16:44:48.205Z,95527.75
2023-05-05T16:47:16.292Z,95531.92
2023-05-05T16:49:44.254Z,95530.47
2023-05-05T16:52:12.154Z,95534.95
2023-05-05T16:54:40.087Z,95533.98
2023-05-05T16:57:08.092Z,95536.34
2023-05-05T16:59:36.178Z,95540.21
2023-05-05T17:02:04.427Z,95540.30
2023-05-05T17:04:32.825Z,95535.90
2023-05-05T17:07:01.107Z,95538.11
2023-05-05T17:09:29.197Z,95537.52
2023-05-05T17:11:57.518Z,95541.95
2023-05-05T17:14:27.355Z,95538.27
2023-05-05T17:16:55.388Z,95544.33
2023-05-05T17:19:23.274Z,95542.65
2023-05-05T17:21:51.229Z,95540.16
2023-05-05T17:24:19.353Z,95540.25
2023-05-05T17:26:47.320Z,95542.45
2023-05-05T17:29:19.817Z,95540.16
2023-05-05T17:31:47.912Z,95545.34
2023-05-05T17:34:16.130Z,95547.59
2023-05-05T17:36:44.123Z,95546.73
2023-05-05T17:39:12.077Z,95545.41
2023-05-05T17:41:42.095Z,95547.33
2023-05-05T17:44:10.278Z,95551.23
2023-05-05T17:46:39.475Z,95551.73
2023-05-05T17:49:07.423Z,95556.13
2023-05-05T17:51:35.624Z,95554.94
2023-05-05T17:54:03.676Z,95557.24
2023-05-05T17:56:31.611Z,95560.23
2023-05-05T17:59:00.456Z,95561.60
2023-05-05T18:01:28.580Z,95560.59
2023-05-05T18:03:57.534Z,95566.23
2023-05-05T18:06:25.894Z,95573.22
2023-05-05T18:08:54.004Z,95574.92
2023-05-05T18:11:26.803Z,95582.33
2023-05-05T18:13:56.195Z,95584.73
2023-05-05T18:16:24.262Z,95586.04
2023-05-05T18:18:52.278Z,95589.60
2023-05-05T18:21:20.617Z,95594.52
2023-05-05T18:23:49.857Z,95597.67
2023-05-05T18:26:18.082Z,95601.76
2023-05-05T18:28:46.077Z,95605.51
2023-05-05T18:31:14.051Z,95606.59
2023-05-05T18:33:41.943Z,95607.34
2023-05-05T18:36:09.872Z,95608.34
2023-05-05T18:38:37.801Z,95610.02
2023-05-05T18:41:05.756Z,95607.92
2023-05-05T18:43:33.622Z,95607.35
2023-05-05T18:46:01.733Z,95611.52
2023-05-05T18:48:30.192Z,95612.39
2023-05-05T18:51:04.814Z,95612.88
2023-05-05T18:53:32.800Z,95613.24
2023-05-05T18:56:01.577Z,95615.40
2023-05-05T18:58:30.663Z,95618.63
2023-05-05T19:00:58.658Z,95618.87
2023-05-05T19:03:26.874Z,95624.36
2023-05-05T19:05:54.830Z,95624.09
2023-05-05T19:08:23.217Z,95625.05
2023-05-05T19:10:51.382Z,95625.55
2023-05-05T19:13:19.365Z,95627.26
2023-05-05T19:15:48.163Z,95632.41
2023-05-05T19:18:16.242Z,95631.95
2023-05-05T19:20:44.321Z,95629.06
2023-05-05T19:23:12.424Z,95625.80
2023-05-05T19:25:40.387Z,95626.06
2023-05-05T19:28:09.564Z,95628.36
2023-05-05T19:30:37.912Z,95624.30
2023-05-05T19:33:06.180Z,95625.31
2023-05-05T19:35:34.260Z,95623.27
2023-05-05T19:38:02.610Z,95621.09
2023-05-05T19:40:30.728Z,95621.08
2023-05-05T19:42:58.692Z,95625.27
2023-05-05T19:45:26.626Z,95626.32
2023-05-05T19:47:54.594Z,95625.28
2023-05-05T19:50:22.651Z,95626.54
2023-05-05T19:52:51.603Z,95629.00
2023-05-05T19:55:20.606Z,95629.46
2023-05-05T19:57:48.533Z,95629.72
2023-05-05T20:00:17.457Z,95630.78
2023-05-05T20:02:45.918Z,95628.45
2023-05-05T20:05:16.345Z,95627.20
2023-05-05T20:07:45.293Z,95624.25
2023-05-05T20:10:13.551Z,95621.88
2023-05-05T20:12:47.893Z,95624.55
2023-05-05T20:15:20.295Z,95625.31
2023-05-05T20:17:48.819Z,95623.06
2023-05-05T20:20:18.790Z,95624.14
2023-05-05T20:22:47.498Z,95624.36
2023-05-05T20:25:18.721Z,95625.19
2023-05-05T20:27:46.757Z,95624.40
2023-05-05T20:30:14.792Z,95623.39
2023-05-05T20:32:42.807Z,95623.40
2023-05-05T20:35:12.870Z,95619.42
2023-05-05T20:37:41.349Z,95622.20
2023-05-05T20:40:09.744Z,95619.98
2023-05-05T20:42:38.037Z,95618.07
2023-05-05T20:45:07.267Z,95618.35
2023-05-05T20:47:35.736Z,95617.81
2023-05-05T20:50:03.982Z,95619.70
2023-05-05T20:52:33.817Z,95616.27
2023-05-05T20:55:01.804Z,95618.45
2023-05-05T20:57:29.980Z,95615.78
2023-05-05T20:59:58.112Z,95617.13
2023-05-05T21:02:26.204Z,95618.06
2023-05-05T21:04:54.269Z,95618.73
2023-05-05T21:07:22.254Z,95624.25
2023-05-05T21:09:50.124Z,95620.02
2023-05-05T21:12:18.132Z,95626.34
2023-05-05T21:14:46.213Z,95623.17
2023-05-05T21:17:14.185Z,95622.52
2023-05-05T21:19:42.065Z,95620.45
2023-05-05T21:22:10.044Z,95623.33
2023-05-05T21:24:38.348Z,95618.38
2023-05-05T21:27:06.351Z,95617.85
2023-05-05T21:29:37.666Z,95617.73
2023-05-05T21:32:07.439Z,95615.59
2023-05-05T21:34:35.631Z,95618.25
2023-05-05T21:37:04.374Z,95618.77
2023-05-05T21:39:35.550Z,95618.67
2023-05-05T21:42:03.470Z,95615.80
2023-05-05T21:44:31.683Z,95611.48
2023-05-05T21:46:59.862Z,95610.45
2023-05-05T21:49:27.800Z,95612.98
2023-05-05T21:51:56.442Z,95612.69
2023-05-05T21:54:24.381Z,95610.70
2023-05-05T21:56:52.354Z,95610.95
2023-05-05T21:59:20.410Z,95614.91
2023-05-05T22:01:51.557Z,95613.04
2023-05-05T22:04:19.678Z,95614.13
2023-05-05T22:06:47.693Z,95613.21
2023-05-05T22:09:15.587Z,95617.64
2023-05-05T22:11:43.581Z,95617.59
2023-05-05T22:14:11.502Z,95614.52
2023-05-05T22:16:39.556Z,95608.94
2023-05-05T22:19:07.664Z,95603.88
2023-05-05T22:21:35.589Z,95606.79
2023-05-05T22:24:03.609Z,95610.08
2023-05-05T22:26:31.687Z,95605.98
2023-05-05T22:28:59.716Z,95602.73
2023-05-05T22:31:29.521Z,95606.02
2023-05-05T22:33:57.621Z,95601.90
2023-05-05T22:36:26.109Z,95599.75
2023-05-05T22:38:54.022Z,95599.25
2023-05-05T22:41:22.162Z,95600.59
2023-05-05T22:43:50.135Z,95597.14
2023-05-05T22:46:18.055Z,95598.80
2023-05-05T22:48:46.793Z,95594.91
2023-05-05T22:51:14.685Z,95594.15
2023-05-05T22:53:42.781Z,95594.50
2023-05-05T22:56:10.710Z,95595.23
2023-05-05T22:58:38.626Z,95594.27
2023-05-05T23:01:07.489Z,95594.06
2023-05-05T23:03:35.641Z,95591.16
2023-05-05T23:06:03.896Z,95588.91
2023-05-05T23:08:32.022Z,95590.36
2023-05-05T23:11:00.832Z,95588.39
2023-05-05T23:13:28.895Z,95586.59
2023-05-05T23:15:57.088Z,95584.92
2023-05-05T23:18:25.156Z,95584.10
2023-05-05T23:20:53.251Z,95581.45
2023-05-05T23:23:21.107Z,95576.93
2023-05-05T23:25:49.640Z,95575.06
2023-05-05T23:28:18.713Z,95574.40
2023-05-05T23:30:46.722Z,95577.33
2023-05-05T23:33:14.767Z,95570.72
2023-05-05T23:35:45.407Z,95568.11
2023-05-05T23:38:13.316Z,95566.43
2023-05-05T23:40:41.785Z,95566.58
2023-05-05T23:43:12.108Z,95562.67
2023-05-05T23:45:40.492Z,95562.04
2023-05-05T23:48:08.494Z,95563.70
2023-05-05T23:50:36.429Z,95565.66
2023-05-05T23:53:04.360Z,95559.80
2023-05-05T23:55:32.239Z,95555.96
2023-05-05T23:58:00.275Z,95553.52
